Bookmark and Share
Track history (hours):
 

Cfl Racer

Last reported at 2014-Apr-24 21:32 UTC. Time now 2014-Apr-24 22:04 UTC.
Position N 51°54' E 004°16'.

Length 83 m; draft 2.9 m.

Type: Cargo ship. MMSI: 306762000.

NotesDate/timePositionNaut miles runAvg speedWind from/ knotsBaromVisibWave heightAir tempDewpointWater temp
2014-Apr-24 21:32N 51°54' E 004°16'1111.1
2014-Apr-24 20:34N 51°60' E 004°01'7911.2
2014-Apr-24 13:33N 52°40' E 002°10'1111.5
2014-Apr-24 12:33N 52°46' E 001°54'1110.7
2014-Apr-24 11:34N 52°52' E 001°40'1010.0
2014-Apr-24 10:34N 52°57' E 001°26'10 9.8
2014-Apr-24 09:34N 53°01' E 001°11'30 9.9
2014-Apr-24 06:30N 53°21' E 000°33'1010.1
2014-Apr-24 05:33N 53°28' E 000°22'1110.8
2014-Apr-24 04:33N 53°34' E 000°07'1413.9
2014-Apr-24 03:32N 53°41' W 000°13'1110.9
2014-Apr-24 02:31N 53°41' W 000°32'  
2014-Apr-20 20:14N 53°42' W 000°28'6 9.2
2014-Apr-20 19:32N 53°44' W 000°18'9 9.2
2014-Apr-20 18:33N 53°37' W 000°07'1010.0
2014-Apr-20 17:33N 53°33' E 000°09'9 9.3
2014-Apr-20 16:33N 53°34' E 000°24'1 1.1
2014-Apr-20 15:33N 53°35' E 000°25'0 0.1
2014-Apr-20 14:32N 53°35' E 000°25'0 0.0
2014-Apr-20 13:33N 53°35' E 000°25'0 0.1
2014-Apr-20 12:32N 53°35' E 000°25'0 0.1
2014-Apr-20 11:33N 53°35' E 000°25'0 0.2
2014-Apr-20 10:33N 53°35' E 000°25'0 0.1
2014-Apr-20 09:33N 53°35' E 000°25'175 9.6
2014-Apr-19 15:20N 53°49' E 005°19'911.0
2014-Apr-19 14:30N 53°50' E 005°34'56 9.2
2014-Apr-19 08:22N 53°57' E 007°09'810.2
2014-Apr-19 07:33N 53°59' E 007°23'1110.6
2014-Apr-19 06:33N 54°01' E 007°40'1110.9
2014-Apr-19 05:33N 54°01' E 007°59'1212.1
2014-Apr-19 04:33N 54°00' E 008°19'1212.2
2014-Apr-19 03:33N 53°57' E 008°39'9 9.0
2014-Apr-19 02:33N 53°50' E 008°50'8 8.5
2014-Apr-19 01:33N 53°52' E 009°04'4 4.4
2014-Apr-19 00:33N 53°55' E 009°11'9 8.6
2014-Apr-18 23:33N 54°02' E 009°18'9 8.0
2014-Apr-18 22:24N 54°10' E 009°26'5 5.4
2014-Apr-18 21:33N 54°12' E 009°33'64 7.2
2014-Apr-18 12:32N 54°34' E 011°17'1111.1
2014-Apr-18 11:33N 54°30' E 011°34'1211.8
2014-Apr-18 10:33N 54°26' E 011°54'2110.3
2014-Apr-18 08:33N 54°36' E 012°26'1111.1
2014-Apr-18 07:33N 54°40' E 012°43'1211.3
2014-Apr-18 06:31N 54°42' E 013°03'1010.8
2014-Apr-18 05:33N 54°43' E 013°21'10 9.7
2014-Apr-18 04:33N 54°39' E 013°37'1110.7
2014-Apr-18 03:33N 54°31' E 013°48'1110.8
2014-Apr-18 02:33N 54°21' E 013°57'1310.8
2014-Apr-18 01:22N 54°10' E 014°06'910.9
2014-Apr-18 00:33N 54°02' E 014°13'9 8.8
2014-Apr-17 23:33N 53°53' E 014°16'9 8.5
2014-Apr-17 22:33N 53°46' E 014°24'1110.6
2014-Apr-17 21:33N 53°38' E 014°35'9 9.3
2014-Apr-17 20:33N 53°28' E 014°36'4 1.3
2014-Apr-17 17:17N 53°24' E 014°37'0 0.0
2014-Apr-17 16:32N 53°24' E 014°37'0 0.0
2014-Apr-17 15:32N 53°24' E 014°37'0 0.0
2014-Apr-17 14:11N 53°24' E 014°37'0 0.0
2014-Apr-17 13:14N 53°24' E 014°37'0 0.0
2014-Apr-17 11:23N 53°24' E 014°37'0 0.0
2014-Apr-17 06:14N 53°24' E 014°37'0 0.0
2014-Apr-17 05:32N 53°24' E 014°37'0 0.0
2014-Apr-17 04:29N 53°24' E 014°37'0 0.0
2014-Apr-17 02:32N 53°24' E 014°37'0 0.0
2014-Apr-17 01:32N 53°24' E 014°37'0 0.0
2014-Apr-17 00:26N 53°24' E 014°37'0 0.0
2014-Apr-16 23:32N 53°24' E 014°37'0 0.0
2014-Apr-16 22:23N 53°24' E 014°37'0 0.0
2014-Apr-16 21:23N 53°24' E 014°37'0 0.0
2014-Apr-16 20:29N 53°24' E 014°37'0 0.0
2014-Apr-16 13:20N 53°24' E 014°37'0 0.0
2014-Apr-16 12:29N 53°24' E 014°37'0 0.0
2014-Apr-16 10:17N 53°24' E 014°37'0 0.0
2014-Apr-16 06:05N 53°24' E 014°37'0 0.0
2014-Apr-16 04:23N 53°24' E 014°37'0 0.0
2014-Apr-16 03:26N 53°24' E 014°37'0 0.0
2014-Apr-16 02:32N 53°24' E 014°37'0 0.0
2014-Apr-15 20:08N 53°24' E 014°37'0 0.0
2014-Apr-15 19:32N 53°24' E 014°37'0 0.0
2014-Apr-15 15:14N 53°24' E 014°37'0 0.0
2014-Apr-15 14:32N 53°24' E 014°37'  

Dump ship's entire track history

sailing weather and tide predictions

Cfl Racer — PJMV — position and weather